Time;durP1;ratioP1;P1;durP2;ratioP2;P2;SDS_P1;SDS_P2;PMS_P1;PMS_P2;Temp;Humidity;BMP_temperature;BMP_pressure;BME280_temperature;BME280_humidity;BME280_pressure;Samples;Min_cycle;Max_cycle;Signal;HPM_P1;HPM_P2
2022/04/12 00:01:05;;;;;;;15.05;13.93;;;2.40;99.90;3.20;98040.00;;;;4632859;30;87028;-57
2022/04/12 00:03:31;;;;;;;13.88;12.85;;;2.50;99.90;3.30;98037.00;;;;4634463;30;88008;-56
2022/04/12 00:05:58;;;;;;;14.55;13.50;;;2.40;99.90;3.30;98026.00;;;;4634348;30;87736;-55
2022/04/12 00:08:25;;;;;;;15.55;14.45;;;2.50;99.90;3.10;98024.00;;;;4633929;30;87416;-56
2022/04/12 00:10:51;;;;;;;16.15;14.95;;;2.50;99.90;3.20;98010.00;;;;4633662;30;87042;-55
2022/04/12 00:13:18;;;;;;;13.73;12.63;;;2.50;99.90;3.20;98011.00;;;;4635392;30;87663;-55
2022/04/12 00:15:45;;;;;;;14.50;13.40;;;2.50;99.90;3.30;98010.00;;;;4632375;30;87995;-54
2022/04/12 00:20:57;;;;;;;17.45;16.23;;;2.50;99.90;3.20;98003.00;;;;4632665;30;86396;-57
2022/04/12 00:23:23;;;;;;;17.98;16.58;;;2.50;99.90;3.30;97986.00;;;;4632523;30;87062;-54
2022/04/12 00:25:49;;;;;;;15.88;14.68;;;2.60;99.90;3.30;97972.00;;;;4634443;30;87902;-54
2022/04/12 00:28:16;;;;;;;16.70;15.40;;;2.50;99.90;3.20;97954.00;;;;4633366;30;88485;-55
2022/04/12 00:30:43;;;;;;;16.67;15.48;;;2.50;99.90;3.20;97956.00;;;;4632195;30;87268;-52
2022/04/12 00:33:09;;;;;;;15.52;14.25;;;2.50;99.90;3.20;97984.00;;;;4636908;30;87194;-52
2022/04/12 00:35:35;;;;;;;12.85;11.85;;;2.50;99.90;3.10;97993.00;;;;4633124;30;86873;-54
2022/04/12 00:38:13;;;;;;;12.88;11.88;;;2.50;99.90;3.10;97984.00;;;;4633442;30;87356;-54
2022/04/12 00:40:40;;;;;;;12.65;11.75;;;2.50;99.90;3.20;97974.00;;;;4633010;30;86974;-62
2022/04/12 00:43:07;;;;;;;11.82;10.93;;;2.50;99.90;3.10;97969.00;;;;4633820;30;87365;-65
2022/04/12 00:45:33;;;;;;;12.43;11.50;;;2.50;99.90;3.10;97984.00;;;;4634057;30;87027;-64
2022/04/12 00:47:59;;;;;;;12.82;11.93;;;2.50;99.90;3.10;97965.00;;;;4633145;30;87376;-63
2022/04/12 00:50:25;;;;;;;12.82;11.93;;;2.50;99.90;3.10;97956.00;;;;4633451;30;87457;-62
2022/04/12 00:52:55;;;;;;;12.63;11.73;;;2.40;99.90;3.10;97961.00;;;;4632819;30;88085;-59
2022/04/12 00:55:21;;;;;;;12.88;11.88;;;2.40;99.90;3.20;97982.00;;;;4635553;30;89255;-59
2022/04/12 00:57:49;;;;;;;13.85;12.85;;;2.40;99.90;3.20;97980.00;;;;4633160;30;87386;-59
2022/04/12 01:00:18;;;;;;;13.57;12.60;;;2.40;99.90;3.10;97971.00;;;;4632924;30;87154;-59
2022/04/12 01:02:45;;;;;;;12.52;11.63;;;2.40;99.90;3.00;97989.00;;;;4633490;30;86973;-59
2022/04/12 01:05:11;;;;;;;12.57;11.68;;;2.40;99.90;3.10;97976.00;;;;4633208;30;87843;-59
2022/04/12 01:07:38;;;;;;;13.05;12.05;;;2.40;99.90;3.20;97979.00;;;;4631969;30;87630;-63
2022/04/12 01:10:05;;;;;;;13.02;12.13;;;2.40;99.90;3.20;97959.00;;;;4634248;30;86489;-63
2022/04/12 01:12:38;;;;;;;13.93;12.93;;;2.50;99.90;3.30;97972.00;;;;4634513;30;87439;-63
2022/04/12 01:15:20;;;;;;;14.32;13.10;;;2.50;99.90;3.20;97962.00;;;;4631981;30;88882;-62
2022/04/12 01:17:48;;;;;;;14.48;13.38;;;2.50;99.90;3.20;97945.00;;;;4631903;30;88555;-62
2022/04/12 01:20:17;;;;;;;14.52;13.43;;;2.50;99.90;3.20;97952.00;;;;4633603;30;87318;-63
2022/04/12 01:23:12;;;;;;;14.70;13.60;;;2.50;99.90;3.20;97949.00;;;;4632183;30;87103;-63
2022/04/12 01:25:39;;;;;;;14.73;13.63;;;2.50;99.90;3.20;97940.00;;;;4628589;30;89657;-62
2022/04/12 01:28:08;;;;;;;14.32;13.23;;;2.50;99.90;3.20;97940.00;;;;4633251;30;87275;-63
2022/04/12 01:30:35;;;;;;;14.38;13.27;;;2.50;99.90;3.20;97937.00;;;;4632479;30;87559;-63
2022/04/12 01:33:01;;;;;;;15.25;14.15;;;2.40;99.90;3.20;97940.00;;;;4637069;30;87036;-63
2022/04/12 01:35:27;;;;;;;15.45;14.35;;;2.50;99.90;3.20;97931.00;;;;4631876;30;86834;-63
2022/04/12 01:37:53;;;;;;;15.25;14.15;;;2.40;99.90;3.20;97926.00;;;;4633330;30;86949;-63
2022/04/12 01:40:19;;;;;;;15.38;14.25;;;2.50;99.90;3.20;97928.00;;;;4633213;30;87051;-63
2022/04/12 01:42:46;;;;;;;15.48;14.38;;;2.50;99.90;3.30;97925.00;;;;4631245;30;89117;-62
2022/04/12 01:45:12;;;;;;;15.85;14.65;;;2.50;99.90;3.20;97927.00;;;;4633012;30;88707;-63
2022/04/12 01:47:38;;;;;;;16.70;15.50;;;2.50;99.90;3.20;97908.00;;;;4633077;30;87193;-62
2022/04/12 01:50:06;;;;;;;17.95;16.58;;;2.50;99.90;3.20;97916.00;;;;4633250;30;86900;-63
2022/04/12 01:52:33;;;;;;;17.75;16.10;;;2.50;99.90;3.20;97918.00;;;;4632615;30;88043;-52
2022/04/12 01:55:01;;;;;;;18.20;16.85;;;2.50;99.90;3.20;97917.00;;;;4632772;30;87513;-51
2022/04/12 01:57:27;;;;;;;18.05;16.65;;;2.50;99.90;3.10;97908.00;;;;4632692;30;87395;-62
2022/04/12 01:59:53;;;;;;;18.30;16.90;;;2.50;99.90;3.10;97916.00;;;;4633567;30;86756;-63
2022/04/12 02:02:19;;;;;;;18.55;17.15;;;2.50;99.90;3.10;97912.00;;;;4632255;30;87035;-54
2022/04/12 02:04:45;;;;;;;18.80;17.33;;;2.50;99.90;3.10;97916.00;;;;4631319;30;88072;-57
2022/04/12 02:07:12;;;;;;;19.08;17.67;;;2.50;99.90;3.20;97928.00;;;;4632787;30;87934;-62
2022/04/12 02:09:38;;;;;;;19.52;18.02;;;2.50;99.90;3.20;97919.00;;;;4633049;30;87389;-63
2022/04/12 02:12:05;;;;;;;19.75;18.15;;;2.50;99.90;3.20;97916.00;;;;4633914;30;86932;-63
2022/04/12 02:14:31;;;;;;;18.92;17.52;;;2.50;99.90;3.20;97916.00;;;;4636369;30;87720;-63
2022/04/12 02:16:57;;;;;;;19.90;18.40;;;2.50;99.90;3.10;97891.00;;;;4632622;30;87290;-62
2022/04/12 02:19:23;;;;;;;21.00;19.40;;;2.50;99.90;3.20;97888.00;;;;4632890;30;86959;-63
2022/04/12 02:21:49;;;;;;;20.50;18.98;;;2.50;99.90;3.20;97872.00;;;;4631687;30;87076;-62
2022/04/12 02:24:15;;;;;;;20.52;18.95;;;2.50;99.90;3.20;97883.00;;;;4636231;30;86712;-63
2022/04/12 02:26:42;;;;;;;21.45;19.80;;;2.50;99.90;3.10;97881.00;;;;4632086;30;87957;-63
2022/04/12 02:29:08;;;;;;;20.33;18.67;;;2.50;99.90;3.10;97888.00;;;;4632531;30;87273;-63
2022/04/12 02:31:34;;;;;;;21.65;20.02;;;2.50;99.90;3.10;97916.00;;;;4631219;30;88195;-64
2022/04/12 02:34:00;;;;;;;22.80;21.13;;;2.50;99.90;3.20;97910.00;;;;4636907;30;88709;-63
2022/04/12 02:36:26;;;;;;;23.55;21.60;;;2.50;99.90;3.10;97901.00;;;;4632210;30;87959;-63
2022/04/12 02:38:52;;;;;;;23.50;21.70;;;2.50;99.90;3.10;97912.00;;;;4632464;30;87014;-63
2022/04/12 02:41:18;;;;;;;24.05;22.15;;;2.50;99.90;3.20;97924.00;;;;4632110;30;87489;-63
2022/04/12 02:43:44;;;;;;;24.58;22.58;;;2.50;99.90;3.20;97909.00;;;;4632019;30;87461;-63
2022/04/12 02:46:11;;;;;;;24.30;22.30;;;2.50;99.90;3.20;97898.00;;;;4632598;30;87469;-62
2022/04/12 02:48:37;;;;;;;25.65;23.42;;;2.50;99.90;3.20;97922.00;;;;4632384;30;86260;-63
2022/04/12 02:51:03;;;;;;;24.73;22.73;;;2.50;99.90;3.20;97891.00;;;;4631187;30;87188;-62
2022/04/12 02:53:29;;;;;;;26.58;24.38;;;2.50;99.90;3.30;97897.00;;;;4632162;30;87771;-62
2022/04/12 02:55:56;;;;;;;26.65;24.35;;;2.60;99.90;3.30;97907.00;;;;4631380;30;88023;-62
2022/04/12 02:58:22;;;;;;;27.83;25.35;;;2.60;99.90;3.30;97926.00;;;;4631614;30;86968;-62
2022/04/12 03:00:48;;;;;;;27.50;25.13;;;2.60;99.90;3.30;97925.00;;;;4631897;30;87584;-63
2022/04/12 03:03:14;;;;;;;27.73;25.20;;;2.60;99.90;3.40;97931.00;;;;4632126;30;87455;-63
2022/04/12 03:05:40;;;;;;;28.90;26.35;;;2.60;99.90;3.30;97914.00;;;;4631356;30;88544;-63
2022/04/12 03:08:07;;;;;;;30.30;27.48;;;2.60;99.90;3.40;97914.00;;;;4632267;30;87474;-63
2022/04/12 03:10:33;;;;;;;30.05;27.35;;;2.60;99.90;3.40;97931.00;;;;4631648;30;87404;-62
2022/04/12 03:12:59;;;;;;;32.25;29.25;;;2.60;99.90;3.30;97891.00;;;;4637080;30;88105;-62
2022/04/12 03:15:26;;;;;;;31.98;28.85;;;2.60;99.90;3.40;97893.00;;;;4635276;30;87585;-63
2022/04/12 03:17:52;;;;;;;34.38;31.23;;;2.60;99.90;3.30;97904.00;;;;4631794;30;87062;-63
2022/04/12 03:20:18;;;;;;;32.40;29.30;;;2.60;99.90;3.30;97892.00;;;;4630332;30;88447;-63
2022/04/12 03:22:44;;;;;;;33.92;30.63;;;2.60;99.90;3.40;97905.00;;;;4631554;30;88303;-63
2022/04/12 03:25:11;;;;;;;35.75;32.05;;;2.60;99.90;3.30;97905.00;;;;4631234;30;87977;-63
2022/04/12 03:27:37;;;;;;;35.90;30.08;;;2.70;99.90;3.40;97903.00;;;;4631643;30;86977;-63
2022/04/12 03:30:05;;;;;;;35.33;31.92;;;2.70;99.90;3.40;97897.00;;;;4631291;30;87351;-63
2022/04/12 03:32:31;;;;;;;35.15;31.63;;;2.70;99.90;3.40;97904.00;;;;4637201;30;88662;-63
2022/04/12 03:34:57;;;;;;;34.35;31.17;;;2.70;99.90;3.40;97898.00;;;;4634024;30;88544;-63
2022/04/12 03:37:24;;;;;;;40.80;31.70;;;2.70;99.90;3.50;97915.00;;;;4632574;30;86625;-62
2022/04/12 03:39:51;;;;;;;36.20;32.30;;;2.70;99.90;3.60;97886.00;;;;4634259;30;87029;-63
2022/04/12 03:42:18;;;;;;;41.00;32.42;;;2.80;99.90;3.60;97897.00;;;;4634802;30;87473;-62
2022/04/12 03:44:47;;;;;;;43.97;33.38;;;2.80;99.90;3.60;97905.00;;;;4633022;30;89031;-63
2022/04/12 03:47:13;;;;;;;41.35;33.83;;;2.80;99.90;3.50;97898.00;;;;4634119;30;87075;-63
2022/04/12 03:49:40;;;;;;;37.50;33.65;;;2.80;99.90;3.60;97910.00;;;;4633177;30;87364;-63
2022/04/12 03:52:06;;;;;;;42.65;35.47;;;2.80;99.90;3.60;97916.00;;;;4634174;30;87743;-64
2022/04/12 03:54:32;;;;;;;48.42;30.73;;;2.90;99.90;3.60;97906.00;;;;4633857;30;87579;-64
2022/04/12 03:56:58;;;;;;;46.58;34.08;;;2.90;99.90;3.60;97909.00;;;;4633550;30;87540;-63
2022/04/12 03:59:24;;;;;;;54.20;36.08;;;2.90;99.90;3.60;97913.00;;;;4634818;30;87513;-63
2022/04/12 04:01:51;;;;;;;46.22;38.00;;;2.90;99.90;3.70;97914.00;;;;4634141;30;88004;-63
2022/04/12 04:04:17;;;;;;;44.80;35.88;;;2.90;99.90;3.70;97928.00;;;;4633655;30;87515;-64
2022/04/12 04:06:43;;;;;;;44.63;34.60;;;2.90;99.90;3.70;97922.00;;;;4633230;30;87467;-64
2022/04/12 04:09:09;;;;;;;54.20;35.53;;;3.00;99.90;3.70;97916.00;;;;4633106;30;88079;-64
2022/04/12 04:11:39;;;;;;;48.38;36.47;;;3.00;99.90;3.80;97931.00;;;;4633067;30;89195;-62
2022/04/12 04:14:06;;;;;;;48.25;38.63;;;3.00;99.90;3.90;97941.00;;;;4632381;30;87292;-63
2022/04/12 04:16:33;;;;;;;49.10;36.13;;;3.00;99.90;3.80;97928.00;;;;4616413;30;87526;-63
2022/04/12 04:18:59;;;;;;;64.45;33.58;;;3.00;99.90;3.70;97943.00;;;;4619761;30;87118;-63
2022/04/12 04:21:25;;;;;;;59.60;40.40;;;3.00;99.90;3.70;97924.00;;;;4633953;30;87564;-63
2022/04/12 04:23:51;;;;;;;64.22;38.53;;;3.00;99.90;3.80;97937.00;;;;4633661;30;88688;-64
2022/04/12 04:26:17;;;;;;;72.65;43.38;;;3.00;99.90;3.80;97936.00;;;;4634245;30;86173;-63
2022/04/12 04:28:45;;;;;;;70.10;35.70;;;3.00;99.90;3.80;97935.00;;;;4633230;30;87573;-63
2022/04/12 04:31:11;;;;;;;79.03;40.78;;;3.00;99.90;3.80;97919.00;;;;4634078;30;87778;-63
2022/04/12 04:33:38;;;;;;;84.65;39.38;;;3.10;99.90;3.70;97908.00;;;;4639266;30;88006;-63
2022/04/12 04:36:04;;;;;;;90.90;44.38;;;3.10;99.90;3.70;97909.00;;;;4633259;30;87064;-63
2022/04/12 04:38:30;;;;;;;89.22;36.20;;;3.00;99.90;3.80;97923.00;;;;4633258;30;87327;-64
2022/04/12 04:40:56;;;;;;;104.97;42.08;;;3.00;99.90;3.80;97934.00;;;;4633359;30;88751;-63
2022/04/12 04:43:23;;;;;;;106.88;43.20;;;3.10;99.90;3.70;97930.00;;;;4633071;30;87386;-62
2022/04/12 04:45:49;;;;;;;107.47;46.67;;;3.00;99.90;3.70;97929.00;;;;4632909;30;86967;-64
2022/04/12 04:48:15;;;;;;;119.82;48.33;;;3.00;99.90;3.80;97955.00;;;;4633000;30;87066;-63
2022/04/12 04:50:42;;;;;;;122.72;43.17;;;3.10;99.90;3.80;97936.00;;;;4633400;30;86862;-63
2022/04/12 04:53:11;;;;;;;112.25;40.70;;;3.00;99.90;3.80;97925.00;;;;4632025;30;87058;-63
2022/04/12 04:55:40;;;;;;;125.57;48.45;;;3.10;99.90;3.80;97914.00;;;;4633340;30;86963;-64
2022/04/12 04:58:06;;;;;;;148.50;41.85;;;3.10;99.90;3.80;97914.00;;;;4632570;30;88199;-63
2022/04/12 05:00:34;;;;;;;156.23;50.28;;;3.10;99.90;3.80;97914.00;;;;4633236;30;87720;-64
2022/04/12 05:03:02;;;;;;;106.05;48.88;;;3.10;99.90;3.80;97903.00;;;;4633078;30;88603;-64
2022/04/12 05:05:30;;;;;;;134.70;43.78;;;3.10;99.90;3.80;97911.00;;;;4640183;30;88249;-64
2022/04/12 05:07:57;;;;;;;136.07;42.53;;;3.10;99.90;3.80;97901.00;;;;4633432;30;86963;-63
2022/04/12 05:10:32;;;;;;;148.70;47.72;;;3.10;99.90;3.80;97903.00;;;;4632730;30;87502;-64
2022/04/12 05:13:00;;;;;;;193.75;61.45;;;3.10;99.90;3.80;97906.00;;;;4637863;30;87376;-64
2022/04/12 05:15:27;;;;;;;112.28;48.13;;;3.10;99.90;3.80;97896.00;;;;4632611;30;86250;-63
2022/04/12 05:17:54;;;;;;;163.27;48.25;;;3.10;99.90;3.90;97922.00;;;;4633701;30;87062;-63
2022/04/12 05:20:25;;;;;;;144.63;43.00;;;3.20;99.90;3.90;97924.00;;;;4632388;30;87570;-63
2022/04/12 05:22:52;;;;;;;149.40;49.83;;;3.20;99.90;3.90;97925.00;;;;4628895;30;88039;-63
2022/04/12 05:25:19;;;;;;;173.43;58.53;;;3.20;99.90;4.00;97920.00;;;;4631906;30;87311;-64
2022/04/12 05:27:45;;;;;;;190.18;53.97;;;3.20;99.90;3.90;97943.00;;;;4632028;30;87605;-64
2022/04/12 05:30:13;;;;;;;162.30;59.60;;;3.20;99.90;4.00;97943.00;;;;4630393;30;87637;-63
2022/04/12 05:32:39;;;;;;;149.60;48.38;;;3.20;99.90;4.00;97940.00;;;;4631266;30;87301;-64
2022/04/12 05:35:07;;;;;;;157.27;56.60;;;3.20;99.90;4.10;97931.00;;;;4631614;30;87336;-64
2022/04/12 05:37:44;;;;;;;215.88;58.75;;;3.30;99.90;4.10;97940.00;;;;4630640;30;87095;-63
2022/04/12 05:40:12;;;;;;;166.25;51.90;;;3.30;99.90;4.20;97944.00;;;;4629382;30;87822;-64
2022/04/12 05:42:39;;;;;;;168.35;48.35;;;3.30;99.90;4.20;97929.00;;;;4631689;30;86998;-64
2022/04/12 05:45:08;;;;;;;181.85;52.78;;;3.40;99.90;4.30;97932.00;;;;4632824;30;86985;-65
2022/04/12 05:47:45;;;;;;;154.18;46.88;;;3.50;99.90;4.40;97923.00;;;;4632591;30;88335;-63
2022/04/12 05:50:14;;;;;;;206.70;44.83;;;3.50;99.90;4.50;97928.00;;;;4632214;30;87970;-64
2022/04/12 05:52:41;;;;;;;183.05;50.20;;;3.50;99.90;4.60;97933.00;;;;4630240;30;87827;-65
2022/04/12 05:55:15;;;;;;;200.05;52.97;;;3.60;99.90;4.60;97937.00;;;;4631623;30;87288;-63
2022/04/12 05:58:07;;;;;;;110.85;45.72;;;3.60;99.90;4.50;97914.00;;;;4629724;30;87433;-63
2022/04/12 06:00:34;;;;;;;190.07;49.25;;;3.60;99.90;4.70;97929.00;;;;4627849;30;87552;-64
2022/04/12 06:03:04;;;;;;;212.30;60.10;;;3.70;99.90;4.50;97915.00;;;;4621704;30;88725;-63
2022/04/12 06:05:32;;;;;;;179.77;48.72;;;3.70;99.90;4.70;97919.00;;;;4630712;30;86374;-64
2022/04/12 06:07:59;;;;;;;165.77;45.83;;;3.70;99.90;4.80;97929.00;;;;4630572;30;87127;-65
2022/04/12 06:10:26;;;;;;;130.70;43.15;;;3.80;99.90;4.80;97914.00;;;;4629500;30;88056;-65
2022/04/12 06:12:52;;;;;;;180.43;59.10;;;3.80;99.90;4.90;97918.00;;;;4642587;30;88783;-64
2022/04/12 06:15:19;;;;;;;115.53;47.80;;;3.90;99.90;4.90;97921.00;;;;4630701;30;87035;-65
2022/04/12 06:17:46;;;;;;;136.55;49.38;;;4.00;99.90;5.00;97921.00;;;;4630410;30;87420;-64
2022/04/12 06:20:15;;;;;;;136.52;50.08;;;4.00;99.90;5.00;97921.00;;;;4630587;30;87747;-65
2022/04/12 06:22:42;;;;;;;365.35;71.22;;;4.00;99.90;4.90;97938.00;;;;4628165;30;87557;-64
2022/04/12 06:25:11;;;;;;;151.32;50.63;;;4.00;99.90;5.20;97929.00;;;;4631908;30;86913;-64
2022/04/12 06:27:41;;;;;;;114.30;45.22;;;4.10;99.90;5.10;97917.00;;;;4631839;30;87135;-64
2022/04/12 06:30:15;;;;;;;127.30;45.30;;;4.10;99.90;5.10;97924.00;;;;4630797;30;87975;-64
2022/04/12 06:32:43;;;;;;;142.07;51.35;;;4.20;99.90;5.20;97926.00;;;;4636967;30;87797;-64
2022/04/12 06:35:12;;;;;;;132.93;47.13;;;4.20;99.90;5.20;97928.00;;;;4631700;30;87000;-64
2022/04/12 06:37:40;;;;;;;168.50;45.00;;;4.20;99.90;5.20;97928.00;;;;4628856;30;88771;-64
2022/04/12 06:40:09;;;;;;;168.70;48.03;;;4.30;99.90;5.20;97934.00;;;;4630909;30;87847;-65
2022/04/12 06:42:38;;;;;;;167.25;48.83;;;4.30;99.90;5.20;97936.00;;;;4629358;30;88589;-64
2022/04/12 06:45:05;;;;;;;116.82;49.20;;;4.30;99.90;5.30;97937.00;;;;4631926;30;87261;-64
2022/04/12 06:47:33;;;;;;;147.00;47.80;;;4.30;99.90;5.30;97950.00;;;;4629473;30;87361;-63
2022/04/12 06:50:00;;;;;;;115.65;49.30;;;4.30;99.90;5.30;97944.00;;;;4631113;30;87920;-63
2022/04/12 06:52:26;;;;;;;124.38;47.15;;;4.40;99.90;5.40;97948.00;;;;4629884;30;88840;-64
2022/04/12 06:54:52;;;;;;;87.00;46.05;;;4.40;99.90;5.30;97945.00;;;;4631294;30;86539;-64
2022/04/12 06:57:18;;;;;;;135.32;49.03;;;4.40;99.90;5.40;97948.00;;;;4630347;30;87025;-64
2022/04/12 06:59:45;;;;;;;98.85;48.03;;;4.40;99.90;5.50;97939.00;;;;4630823;30;88941;-63
2022/04/12 07:02:11;;;;;;;77.40;47.30;;;4.50;99.90;5.60;97934.00;;;;4629200;30;88422;-63
2022/04/12 07:04:37;;;;;;;115.28;45.67;;;4.60;99.90;5.60;97945.00;;;;4629526;30;87167;-63
2022/04/12 07:07:04;;;;;;;112.13;48.53;;;4.60;99.90;5.60;97936.00;;;;4630035;30;87143;-64
2022/04/12 07:09:30;;;;;;;68.60;46.47;;;4.60;99.90;5.70;97946.00;;;;4633100;30;87870;-63
2022/04/12 07:11:59;;;;;;;87.47;48.05;;;4.70;99.90;5.80;97944.00;;;;4632880;30;87379;-64
2022/04/12 07:14:27;;;;;;;99.47;46.42;;;4.80;99.90;5.80;97943.00;;;;4637033;30;87431;-63
2022/04/12 07:16:54;;;;;;;77.38;45.97;;;4.80;99.90;5.70;97940.00;;;;4632114;30;88744;-64
2022/04/12 07:19:20;;;;;;;67.30;43.30;;;4.80;99.90;5.80;97955.00;;;;4633232;30;88156;-65
2022/04/12 07:21:47;;;;;;;66.30;42.67;;;4.90;99.90;5.90;97959.00;;;;4634389;30;87049;-63
2022/04/12 07:24:14;;;;;;;83.22;46.50;;;4.90;99.90;6.00;97953.00;;;;4631392;30;88463;-64
2022/04/12 07:26:40;;;;;;;83.75;46.30;;;5.00;99.90;5.90;97951.00;;;;4633807;30;88169;-64
2022/04/12 07:29:07;;;;;;;69.38;47.97;;;5.00;99.90;6.00;97955.00;;;;4646983;30;87756;-64
2022/04/12 07:31:33;;;;;;;56.38;42.95;;;5.00;99.90;6.00;97946.00;;;;4630621;30;88729;-64
2022/04/12 07:34:00;;;;;;;64.90;43.97;;;5.00;99.90;6.00;97957.00;;;;4632184;30;87427;-65
2022/04/12 07:36:27;;;;;;;65.85;45.40;;;5.00;99.90;6.00;97963.00;;;;4630685;30;87021;-64
2022/04/12 07:38:53;;;;;;;60.20;44.80;;;4.90;99.90;6.00;97970.00;;;;4633054;30;87720;-63
2022/04/12 07:41:20;;;;;;;59.25;44.67;;;5.00;99.90;6.10;97970.00;;;;4632854;30;88823;-64
2022/04/12 07:43:47;;;;;;;63.80;46.65;;;5.10;99.90;6.10;97966.00;;;;4632665;30;86513;-63
2022/04/12 07:46:16;;;;;;;54.53;42.75;;;5.10;99.90;6.20;97960.00;;;;4633085;30;88162;-64
2022/04/12 07:48:43;;;;;;;55.40;42.72;;;5.20;99.90;6.30;97968.00;;;;4633055;30;87629;-64
2022/04/12 07:51:10;;;;;;;56.42;41.75;;;5.20;99.90;6.20;97970.00;;;;4633274;30;88021;-63
2022/04/12 07:53:37;;;;;;;54.08;39.83;;;5.20;99.90;6.30;97976.00;;;;4633052;30;87176;-63
2022/04/12 07:56:03;;;;;;;64.93;41.58;;;5.20;99.90;6.40;97983.00;;;;4635684;30;87629;-64
2022/04/12 07:58:30;;;;;;;55.28;40.90;;;5.30;99.90;6.40;97974.00;;;;4631618;30;90306;-64
2022/04/12 08:00:56;;;;;;;52.78;39.55;;;5.40;99.90;6.50;97979.00;;;;4633526;30;87570;-63
2022/04/12 08:03:22;;;;;;;58.78;40.50;;;5.40;99.90;6.50;97973.00;;;;4632191;30;87340;-64
2022/04/12 08:05:50;;;;;;;59.47;42.05;;;5.50;99.90;6.50;97977.00;;;;4633245;30;87113;-64
2022/04/12 08:08:17;;;;;;;54.22;41.88;;;5.50;99.90;6.60;97966.00;;;;4633413;30;87784;-64
2022/04/12 08:10:43;;;;;;;61.50;42.92;;;5.60;99.90;6.60;97972.00;;;;4631412;30;87130;-64
2022/04/12 08:13:10;;;;;;;58.30;42.10;;;5.60;99.90;6.60;97965.00;;;;4634569;30;87846;-65
2022/04/12 08:15:37;;;;;;;53.20;41.15;;;5.60;99.90;6.70;97972.00;;;;4632830;30;88034;-64
2022/04/12 08:18:04;;;;;;;58.92;40.65;;;5.60;99.90;6.60;97964.00;;;;4630846;30;89330;-66
2022/04/12 08:20:31;;;;;;;51.05;39.63;;;5.60;99.90;6.80;97975.00;;;;4632693;30;87417;-65
2022/04/12 08:22:58;;;;;;;50.53;39.35;;;5.80;99.90;6.80;97980.00;;;;4633239;30;87187;-66
2022/04/12 08:25:25;;;;;;;50.65;40.70;;;5.80;99.90;6.90;97954.00;;;;4633328;30;87979;-65
2022/04/12 08:27:51;;;;;;;52.97;40.80;;;5.90;99.90;7.00;97951.00;;;;4633637;30;87331;-65
2022/04/12 08:30:17;;;;;;;59.00;40.75;;;5.90;99.90;7.00;97961.00;;;;4631391;30;88685;-65
2022/04/12 08:32:44;;;;;;;48.85;38.42;;;6.00;99.90;7.10;97968.00;;;;4628919;30;86832;-65
2022/04/12 08:35:10;;;;;;;53.90;41.17;;;6.10;99.90;7.10;97965.00;;;;4633162;30;87657;-65
2022/04/12 08:37:37;;;;;;;48.95;38.13;;;6.10;99.90;7.10;97968.00;;;;4633261;30;87709;-65
2022/04/12 08:40:03;;;;;;;48.17;38.80;;;6.10;99.90;6.80;97982.00;;;;4632641;30;88506;-65
2022/04/12 08:42:31;;;;;;;47.88;39.05;;;5.90;99.90;7.10;97963.00;;;;4632989;30;86990;-65
2022/04/12 08:44:58;;;;;;;48.70;39.25;;;6.00;99.90;7.20;97967.00;;;;4626348;30;88573;-66
2022/04/12 08:47:25;;;;;;;44.97;37.70;;;6.10;99.90;7.30;97958.00;;;;4628327;30;88744;-65
2022/04/12 08:49:51;;;;;;;49.00;38.38;;;6.10;99.90;7.40;97959.00;;;;4631915;30;90157;-66
2022/04/12 08:52:17;;;;;;;47.35;38.75;;;6.30;99.90;7.40;97953.00;;;;4633916;30;86993;-65
2022/04/12 08:54:45;;;;;;;44.67;34.38;;;6.40;99.90;7.40;97956.00;;;;4632078;30;87490;-65
2022/04/12 08:57:12;;;;;;;46.63;36.28;;;6.40;99.90;7.60;97961.00;;;;4632693;30;88286;-65
2022/04/12 08:59:41;;;;;;;44.88;33.58;;;6.40;99.90;7.90;97967.00;;;;4632987;30;86998;-65
2022/04/12 09:02:09;;;;;;;42.05;34.03;;;6.70;99.90;8.20;97964.00;;;;4632217;30;86998;-65
2022/04/12 09:04:36;;;;;;;40.88;32.08;;;7.00;99.90;8.40;97965.00;;;;4632215;30;88230;-65
2022/04/12 09:07:07;;;;;;;46.92;35.00;;;7.20;99.90;8.50;97968.00;;;;4627234;30;87101;-64
2022/04/12 09:09:34;;;;;;;46.03;35.50;;;7.30;99.90;8.30;97955.00;;;;4630783;30;87495;-64
2022/04/12 09:12:09;;;;;;;50.08;36.65;;;7.10;99.90;8.50;97973.00;;;;4631892;30;87392;-65
2022/04/12 09:14:54;;;;;;;47.92;35.78;;;7.20;99.90;8.50;97986.00;;;;4634995;30;87450;-65
2022/04/12 09:17:35;;;;;;;45.50;35.97;;;7.20;99.90;8.70;97983.00;;;;4629295;30;89029;-65
2022/04/12 09:20:04;;;;;;;43.13;35.30;;;7.40;99.90;8.70;97983.00;;;;4629624;30;87579;-64
2022/04/12 09:22:34;;;;;;;44.35;34.35;;;7.40;99.90;8.80;97981.00;;;;4631265;30;86288;-65
2022/04/12 09:25:04;;;;;;;43.28;33.05;;;7.60;99.90;8.80;97989.00;;;;4632588;30;87548;-66
2022/04/12 09:27:34;;;;;;;45.63;33.75;;;7.60;99.90;8.80;97992.00;;;;4631810;30;88958;-64
2022/04/12 09:30:09;;;;;;;45.25;34.35;;;7.70;99.90;8.90;97988.00;;;;4623675;30;88133;-65
2022/04/12 09:32:41;;;;;;;47.20;32.78;;;7.60;99.90;9.10;97977.00;;;;4629589;30;87257;-65
2022/04/12 09:35:09;;;;;;;42.50;34.30;;;7.90;99.90;9.10;97979.00;;;;4629310;30;87161;-65
2022/04/12 09:37:38;;;;;;;42.08;32.55;;;7.90;99.90;9.20;97976.00;;;;4629828;30;88634;-65
2022/04/12 09:40:14;;;;;;;42.13;32.97;;;8.00;99.90;9.30;97986.00;;;;4631551;30;87698;-65
2022/04/12 09:42:47;;;;;;;43.35;34.55;;;8.00;99.90;9.40;97990.00;;;;4628218;30;87160;-53
2022/04/12 09:45:23;;;;;;;45.03;34.45;;;8.20;99.90;9.50;97986.00;;;;4632397;30;86938;-55
2022/04/12 09:47:55;;;;;;;44.78;32.92;;;8.30;99.90;9.60;97978.00;;;;4631624;30;88041;-56
2022/04/12 09:50:26;;;;;;;47.00;32.97;;;8.40;99.90;9.60;97977.00;;;;4632298;30;87859;-58
2022/04/12 09:53:04;;;;;;;;;;;8.40;99.90;9.70;97995.00;;;;4633146;30;87172;-57
2022/04/12 09:55:45;;;;;;;43.83;34.80;;;8.50;99.90;9.60;98013.00;;;;4633139;30;88541;-58
2022/04/12 09:58:16;;;;;;;45.17;34.28;;;8.30;99.90;9.50;97995.00;;;;4631784;30;87694;-58
2022/04/12 10:00:47;;;;;;;44.88;35.55;;;8.40;99.90;9.30;97996.00;;;;4645333;30;88563;-56
2022/04/12 10:03:15;;;;;;;45.45;34.83;;;8.20;99.90;9.30;98004.00;;;;4631517;30;87034;-59
2022/04/12 10:05:43;;;;;;;48.58;36.17;;;8.00;99.90;9.50;98005.00;;;;4630675;30;87288;-56
2022/04/12 10:08:12;;;;;;;44.35;35.67;;;8.20;99.90;9.50;98013.00;;;;4632127;30;87558;-56
2022/04/12 10:10:42;;;;;;;47.22;35.35;;;8.40;99.90;9.80;97998.00;;;;4631900;30;87540;-58
2022/04/12 10:13:10;;;;;;;43.88;33.33;;;8.60;99.90;9.90;98018.00;;;;4642783;30;86574;-58
2022/04/12 10:15:38;;;;;;;47.13;32.28;;;8.70;99.90;9.60;98022.00;;;;4648459;30;87302;-58
2022/04/12 10:18:04;;;;;;;44.17;33.78;;;8.50;99.90;9.50;98011.00;;;;4639320;30;88715;-57
2022/04/12 10:20:31;;;;;;;46.63;34.22;;;8.30;99.90;9.50;98014.00;;;;4630219;30;89857;-56
2022/04/12 10:23:00;;;;;;;43.28;33.58;;;8.30;99.90;9.40;98025.00;;;;4631717;30;87016;-58
2022/04/12 10:25:27;;;;;;;42.97;33.53;;;8.20;99.90;9.40;98025.00;;;;4631721;30;87419;-58
2022/04/12 10:27:58;;;;;;;46.22;33.10;;;8.20;99.90;9.50;98017.00;;;;4628494;30;87621;-57
2022/04/12 10:30:27;;;;;;;45.93;33.13;;;8.30;99.90;9.60;98025.00;;;;4644767;30;87599;-59
2022/04/12 10:33:09;;;;;;;47.20;33.28;;;8.40;99.90;9.70;98022.00;;;;4631138;30;87066;-58
2022/04/12 10:35:51;;;;;;;44.40;33.17;;;8.50;99.90;9.80;98018.00;;;;4626492;30;87048;-58
2022/04/12 10:38:19;;;;;;;42.78;33.15;;;8.70;99.90;10.00;98018.00;;;;4631719;30;86616;-58
2022/04/12 10:41:00;;;;;;;44.25;33.30;;;8.80;99.90;10.00;98011.00;;;;4630876;30;87417;-57
2022/04/12 10:43:36;;;;;;;48.80;34.47;;;8.80;99.90;9.70;98023.00;;;;4629985;30;88134;-57
2022/04/12 10:46:06;;;;;;;47.85;35.47;;;8.60;99.90;9.90;98018.00;;;;4629794;30;88075;-58
2022/04/12 10:48:33;;;;;;;51.15;35.50;;;8.70;99.90;9.80;98014.00;;;;4654709;30;91586;-55
2022/04/12 10:51:03;;;;;;;50.55;35.42;;;8.70;99.90;9.80;98004.00;;;;4642692;30;88577;-61
2022/04/12 10:53:39;;;;;;;46.08;33.97;;;8.70;99.90;9.90;98011.00;;;;4631509;30;87002;-58
2022/04/12 10:56:17;;;;;;;49.83;36.05;;;8.80;99.90;9.60;98014.00;;;;4631614;30;87055;-61
2022/04/12 10:58:44;;;;;;;45.42;34.65;;;8.60;99.90;9.70;98023.00;;;;4630392;30;87884;-57